Time;durP1;ratioP1;P1;durP2;ratioP2;P2;SDS_P1;SDS_P2;PMS_P1;PMS_P2;Temp;Humidity;BMP_temperature;BMP_pressure;BME280_temperature;BME280_humidity;BME280_pressure;Samples;Min_cycle;Max_cycle;Signal;HPM_P1;HPM_P2
2021/08/20 00:01:19;;;;;;;5.33;4.73;;;;;;;;;;2695813;38;21308;-82
2021/08/20 00:03:45;;;;;;;7.23;4.70;;;;;;;;;;2681876;38;20351;-83
2021/08/20 00:06:13;;;;;;;7.10;6.40;;;;;;;;;;2738302;30;21319;-83
2021/08/20 00:08:40;;;;;;;7.77;5.43;;;;;;;;;;2701809;30;20417;-82
2021/08/20 00:11:17;;;;;;;8.57;5.67;;;;;;;;;;2727173;30;20378;-82
2021/08/20 00:13:43;;;;;;;8.80;5.47;;;;;;;;;;2713392;30;20402;-82
2021/08/20 00:16:09;;;;;;;8.53;5.87;;;;;;;;;;2682199;38;20380;-82
2021/08/20 00:18:35;;;;;;;7.90;5.70;;;;;;;;;;2692365;38;21229;-82
2021/08/20 00:21:17;;;;;;;7.40;5.90;;;;;;;;;;2683998;30;20358;-82
2021/08/20 00:24:14;;;;;;;6.87;6.10;;;;;;;;;;2691700;31;20918;-82
2021/08/20 00:26:42;;;;;;;6.97;5.90;;;;;;;;;;2700752;30;20374;-82
2021/08/20 00:29:10;;;;;;;6.90;6.30;;;;;;;;;;2687500;30;20344;-82
2021/08/20 00:31:36;;;;;;;8.30;6.63;;;;;;;;;;2679054;38;20466;-83
2021/08/20 00:34:03;;;;;;;9.77;6.20;;;;;;;;;;2692788;38;20346;-83
2021/08/20 00:36:30;;;;;;;8.70;6.40;;;;;;;;;;2687640;38;20567;-83
2021/08/20 00:39:14;;;;;;;11.30;7.73;;;;;;;;;;2678404;30;20369;-83
2021/08/20 00:41:42;;;;;;;9.77;7.90;;;;;;;;;;2743976;30;20356;-83
2021/08/20 00:44:10;;;;;;;17.50;7.77;;;;;;;;;;2705991;30;20365;-83
2021/08/20 00:46:38;;;;;;;7.80;7.00;;;;;;;;;;2720920;38;20347;-83
2021/08/20 00:51:51;;;;;;;9.90;7.37;;;;;;;;;;2707723;30;21312;-82
2021/08/20 00:54:18;;;;;;;9.67;7.10;;;;;;;;;;2689066;38;20356;-82
2021/08/20 00:56:45;;;;;;;11.33;7.33;;;;;;;;;;2714618;38;20383;-82
2021/08/20 00:59:12;;;;;;;10.20;7.90;;;;;;;;;;2708897;38;20345;-82
2021/08/20 01:01:38;;;;;;;8.73;7.63;;;;;;;;;;2764239;30;20361;-82
2021/08/20 01:24:45;;;;;;;7.30;6.70;;;;;;;;;;2645424;30;20432;31
2021/08/20 01:27:19;;;;;;;6.80;6.20;;;;;;;;;;2646149;38;20443;31
2021/08/20 01:32:26;;;;;;;7.33;6.73;;;;;;;;;;2637768;38;20434;31
2021/08/20 01:35:01;;;;;;;9.40;7.30;;;;;;;;;;2633313;38;20423;31
2021/08/20 01:47:50;;;;;;;11.30;7.50;;;;;;;;;;2640072;30;20441;31
2021/08/20 01:50:23;;;;;;;14.80;7.67;;;;;;;;;;2639189;30;20962;31
2021/08/20 02:16:03;;;;;;;10.40;8.60;;;;;;;;;;2636033;38;20424;31
2021/08/20 02:21:24;;;;;;;13.47;7.57;;;;;;;;;;2668778;38;20693;31
2021/08/20 02:34:12;;;;;;;10.00;9.00;;;;;;;;;;2637844;38;20482;31
2021/08/20 02:36:45;;;;;;;10.90;8.80;;;;;;;;;;2646990;38;21052;31
2021/08/20 02:46:59;;;;;;;9.17;8.27;;;;;;;;;;2637175;30;21135;31
2021/08/20 02:52:12;;;;;;;12.37;9.97;;;;;;;;;;2748284;38;20397;-83
2021/08/20 02:54:38;;;;;;;9.10;8.27;;;;;;;;;;2725783;30;20353;-81
2021/08/20 02:57:04;;;;;;;9.57;8.53;;;;;;;;;;2782834;38;20782;-81
2021/08/20 02:59:32;;;;;;;12.57;9.03;;;;;;;;;;2761727;30;20349;-82
2021/08/20 03:01:58;;;;;;;15.50;8.97;;;;;;;;;;2731869;38;20362;-81
2021/08/20 03:04:33;;;;;;;11.40;9.40;;;;;;;;;;2734529;38;20349;-81
2021/08/20 03:06:59;;;;;;;10.27;9.27;;;;;;;;;;2746128;38;20352;-81
2021/08/20 03:09:25;;;;;;;10.93;9.83;;;;;;;;;;2743312;38;20354;-81
2021/08/20 03:11:51;;;;;;;11.30;9.90;;;;;;;;;;2726763;38;20409;-81
2021/08/20 03:19:25;;;;;;;13.67;10.50;;;;;;;;;;2714508;38;20367;-81
2021/08/20 03:22:17;;;;;;;15.17;8.97;;;;;;;;;;2714969;30;20399;-80
2021/08/20 03:27:25;;;;;;;14.40;11.20;;;;;;;;;;2641946;30;20806;31
2021/08/20 03:29:52;;;;;;;12.73;10.93;;;;;;;;;;2752015;38;20367;-79
2021/08/20 03:32:18;;;;;;;12.33;10.80;;;;;;;;;;2731131;46;20345;-81
2021/08/20 03:34:46;;;;;;;12.70;11.40;;;;;;;;;;2728645;38;20345;-80
2021/08/20 03:37:13;;;;;;;12.57;11.30;;;;;;;;;;2735128;30;20357;-82
2021/08/20 03:39:39;;;;;;;12.90;11.50;;;;;;;;;;2753373;38;20500;-81
2021/08/20 03:42:06;;;;;;;14.60;13.00;;;;;;;;;;2753984;30;20404;-82
2021/08/20 03:44:32;;;;;;;16.80;11.33;;;;;;;;;;2750483;38;21393;-81
2021/08/20 03:49:32;;;;;;;12.40;11.13;;;;;;;;;;2752165;30;20346;-81
2021/08/20 03:52:00;;;;;;;15.50;11.83;;;;;;;;;;2740070;30;20424;-81
2021/08/20 03:54:27;;;;;;;14.00;11.60;;;;;;;;;;2757012;38;20353;-81
2021/08/20 03:56:54;;;;;;;15.00;12.40;;;;;;;;;;2714528;38;20369;-81
2021/08/20 03:59:50;;;;;;;19.83;12.40;;;;;;;;;;2770980;30;20337;-81
2021/08/20 04:07:32;;;;;;;19.60;13.37;;;;;;;;;;2783073;38;20445;-81
2021/08/20 04:10:00;;;;;;;18.47;13.00;;;;;;;;;;2771545;30;20348;-80
2021/08/20 04:12:35;;;;;;;15.10;13.07;;;;;;;;;;2753879;38;20420;-81
2021/08/20 04:15:11;;;;;;;16.67;13.03;;;;;;;;;;2812544;30;20355;-81
2021/08/20 04:17:37;;;;;;;20.50;14.20;;;;;;;;;;2734105;30;20352;-81
2021/08/20 04:22:38;;;;;;;17.93;13.73;;;;;;;;;;2733907;38;20422;-82
2021/08/20 04:30:12;;;;;;;16.53;13.87;;;;;;;;;;2700304;38;20396;-82
2021/08/20 04:32:46;;;;;;;21.90;15.50;;;;;;;;;;2662721;38;20376;31
2021/08/20 04:35:13;;;;;;;23.70;14.13;;;;;;;;;;2724220;30;20532;-82
2021/08/20 04:37:39;;;;;;;17.90;14.97;;;;;;;;;;2693796;38;20340;-82
2021/08/20 04:40:06;;;;;;;20.23;15.17;;;;;;;;;;2737260;38;20357;-82
2021/08/20 04:42:38;;;;;;;15.80;13.97;;;;;;;;;;2725078;38;20375;-82
2021/08/20 04:45:05;;;;;;;25.87;16.50;;;;;;;;;;2754209;30;20428;-82
2021/08/20 04:47:31;;;;;;;22.77;17.03;;;;;;;;;;2749833;38;20346;-81
2021/08/20 04:52:35;;;;;;;20.40;16.30;;;;;;;;;;2744914;30;20875;-81
2021/08/20 04:55:03;;;;;;;22.40;16.33;;;;;;;;;;2726095;38;20337;-81
2021/08/20 04:57:29;;;;;;;23.77;16.97;;;;;;;;;;2738128;38;20360;-82
2021/08/20 04:59:55;;;;;;;20.03;15.60;;;;;;;;;;2763900;38;20372;-83
2021/08/20 05:05:05;;;;;;;23.97;16.57;;;;;;;;;;2644724;30;20762;31
2021/08/20 05:10:29;;;;;;;19.70;16.80;;;;;;;;;;2718848;38;20372;31
2021/08/20 05:23:14;;;;;;;15.15;13.75;;;;;;;;;;2655860;38;20518;-85
2021/08/20 05:25:40;;;;;;;23.70;14.70;;;;;;;;;;2689854;30;21280;-85
2021/08/20 05:28:09;;;;;;;21.23;15.07;;;;;;;;;;2691956;30;20395;-85
2021/08/20 05:30:35;;;;;;;19.60;13.77;;;;;;;;;;2700481;38;20353;-84
2021/08/20 05:33:01;;;;;;;17.00;13.20;;;;;;;;;;2725358;30;20345;-85
2021/08/20 05:35:27;;;;;;;15.47;13.43;;;;;;;;;;2701221;38;20368;-84
2021/08/20 05:37:54;;;;;;;17.77;12.50;;;;;;;;;;2712989;30;20449;-84
2021/08/20 05:40:20;;;;;;;20.10;12.10;;;;;;;;;;2690357;38;20329;-84
2021/08/20 05:42:46;;;;;;;15.33;12.33;;;;;;;;;;2694951;38;20365;-84
2021/08/20 05:45:13;;;;;;;16.23;13.93;;;;;;;;;;2701392;30;20345;-84
2021/08/20 05:47:39;;;;;;;15.10;13.20;;;;;;;;;;2725009;30;21275;-84
2021/08/20 05:50:06;;;;;;;16.23;12.90;;;;;;;;;;2680677;30;20360;-84
2021/08/20 05:52:36;;;;;;;15.53;11.93;;;;;;;;;;2688164;38;20343;-84
2021/08/20 05:55:02;;;;;;;19.40;12.80;;;;;;;;;;2712764;30;21305;-86
2021/08/20 05:57:29;;;;;;;17.70;12.63;;;;;;;;;;2679326;30;20414;-84
2021/08/20 05:59:55;;;;;;;15.40;13.13;;;;;;;;;;2685923;38;20352;-86
2021/08/20 06:02:21;;;;;;;19.37;14.07;;;;;;;;;;2698467;38;20385;-86
2021/08/20 06:04:47;;;;;;;16.10;12.37;;;;;;;;;;2677863;38;20360;-86
2021/08/20 06:07:13;;;;;;;15.07;12.33;;;;;;;;;;2723689;38;20363;-86
2021/08/20 06:09:40;;;;;;;18.47;13.20;;;;;;;;;;2719061;30;20330;-86
2021/08/20 06:12:07;;;;;;;20.63;13.57;;;;;;;;;;2680430;30;20437;-87
2021/08/20 06:14:34;;;;;;;15.10;12.17;;;;;;;;;;2721243;38;20395;-87
2021/08/20 06:17:00;;;;;;;14.20;12.10;;;;;;;;;;2696436;38;21235;-85
2021/08/20 06:19:27;;;;;;;15.97;12.97;;;;;;;;;;2700150;38;20784;-85
2021/08/20 06:21:54;;;;;;;18.43;12.10;;;;;;;;;;2715162;30;20341;-86
2021/08/20 06:24:27;;;;;;;18.17;12.40;;;;;;;;;;2676464;38;21432;31
2021/08/20 06:27:00;;;;;;;20.10;11.50;;;;;;;;;;2673215;38;20471;31
2021/08/20 06:37:48;;;;;;;20.70;13.87;;;;;;;;;;2775577;30;20348;-83
2021/08/20 06:45:30;;;;;;;19.80;13.83;;;;;;;;;;2723560;38;20536;31
2021/08/20 06:48:05;;;;;;;22.55;13.80;;;;;;;;;;2875827;30;20345;31
2021/08/20 06:55:59;;;;;;;18.40;12.83;;;;;;;;;;2665640;38;20431;-85
2021/08/20 06:58:25;;;;;;;19.80;13.93;;;;;;;;;;2661134;38;20413;-85
2021/08/20 07:00:51;;;;;;;18.70;14.37;;;;;;;;;;2706494;38;20382;-85
2021/08/20 07:03:17;;;;;;;17.70;14.40;;;;;;;;;;2702623;30;20366;-85
2021/08/20 07:05:51;;;;;;;21.30;14.05;;;;;;;;;;2663993;30;20636;31
2021/08/20 07:18:35;;;;;;;19.93;15.23;;;;;;;;;;2676144;38;20342;-83
2021/08/20 07:21:01;;;;;;;18.67;14.53;;;;;;;;;;2816538;30;21358;-84
2021/08/20 07:23:27;;;;;;;19.63;15.67;;;;;;;;;;2813222;30;21189;-84
2021/08/20 07:33:36;;;;;;;22.40;16.17;;;;;;;;;;2750776;38;21143;-82
2021/08/20 07:36:03;;;;;;;24.70;15.70;;;;;;;;;;2813026;38;20353;-82
2021/08/20 07:38:29;;;;;;;23.27;15.73;;;;;;;;;;2800504;38;21278;-85
2021/08/20 07:40:56;;;;;;;20.93;15.87;;;;;;;;;;2772612;38;20377;-83
2021/08/20 07:45:56;;;;;;;22.50;15.50;;;;;;;;;;2687554;38;20350;-83
2021/08/20 07:48:23;;;;;;;23.80;16.43;;;;;;;;;;2847422;30;21287;-84
2021/08/20 07:53:42;;;;;;;21.23;16.80;;;;;;;;;;2708101;30;20364;-85
2021/08/20 07:56:08;;;;;;;21.90;14.80;;;;;;;;;;2698069;38;20395;-84
2021/08/20 07:58:34;;;;;;;23.53;16.17;;;;;;;;;;2706614;38;20377;-85
2021/08/20 08:01:00;;;;;;;23.97;15.60;;;;;;;;;;2712507;38;20574;-84
2021/08/20 08:03:26;;;;;;;26.07;18.90;;;;;;;;;;2719776;30;20342;-85
2021/08/20 08:05:52;;;;;;;26.03;17.00;;;;;;;;;;2706594;38;20374;-84
2021/08/20 08:08:18;;;;;;;21.83;17.00;;;;;;;;;;2747723;30;20354;-84
2021/08/20 08:10:44;;;;;;;21.27;15.30;;;;;;;;;;2713636;38;20373;-84
2021/08/20 08:13:13;;;;;;;27.80;17.47;;;;;;;;;;2698283;38;20407;-85
2021/08/20 08:15:39;;;;;;;19.20;15.03;;;;;;;;;;2705801;38;20347;-84
2021/08/20 08:18:05;;;;;;;23.07;17.50;;;;;;;;;;2693687;30;20376;-84
2021/08/20 08:20:32;;;;;;;22.27;15.73;;;;;;;;;;2702251;30;20385;-84
2021/08/20 08:22:58;;;;;;;25.40;17.47;;;;;;;;;;2712735;30;20350;-84
2021/08/20 08:25:27;;;;;;;21.37;15.80;;;;;;;;;;2704124;30;20433;-84
2021/08/20 08:27:56;;;;;;;25.33;18.30;;;;;;;;;;2696175;30;20373;-85
2021/08/20 08:30:22;;;;;;;25.10;19.07;;;;;;;;;;2703017;30;20350;-85
2021/08/20 08:32:48;;;;;;;27.60;20.57;;;;;;;;;;2684714;30;20339;-84
2021/08/20 08:35:14;;;;;;;26.40;20.03;;;;;;;;;;2690766;38;21190;-84
2021/08/20 08:37:42;;;;;;;26.87;18.37;;;;;;;;;;2717506;30;20354;-84
2021/08/20 08:40:33;;;;;;;24.70;18.67;;;;;;;;;;2731837;30;20351;-84
2021/08/20 08:43:00;;;;;;;24.80;19.10;;;;;;;;;;2712018;30;20352;-85
2021/08/20 08:45:27;;;;;;;22.90;18.40;;;;;;;;;;2718003;38;20585;-85
2021/08/20 08:47:55;;;;;;;20.33;17.73;;;;;;;;;;2722989;38;20390;-85
2021/08/20 08:50:22;;;;;;;19.97;16.53;;;;;;;;;;2722445;38;20353;-85
2021/08/20 08:52:48;;;;;;;17.80;15.60;;;;;;;;;;2726660;30;21146;-86
2021/08/20 08:55:14;;;;;;;18.27;15.40;;;;;;;;;;2681630;30;20378;-85
2021/08/20 08:57:48;;;;;;;22.60;16.20;;;;;;;;;;2652578;30;20949;31
2021/08/20 09:00:31;;;;;;;18.70;15.90;;;;;;;;;;2650194;38;20421;31
2021/08/20 09:03:05;;;;;;;17.83;16.03;;;;;;;;;;2680263;30;20457;31
2021/08/20 09:13:19;;;;;;;15.70;14.17;;;;;;;;;;2634232;38;21303;31
2021/08/20 09:16:09;;;;;;;16.80;13.07;;;;;;;;;;2666888;30;20434;31
2021/08/20 09:23:49;;;;;;;16.47;14.87;;;;;;;;;;2713460;30;20365;-84
2021/08/20 09:26:25;;;;;;;13.03;11.73;;;;;;;;;;2650126;38;20451;31
2021/08/20 09:34:06;;;;;;;15.17;12.23;;;;;;;;;;2633401;30;20393;31
2021/08/20 09:36:40;;;;;;;11.07;9.97;;;;;;;;;;2695803;30;20410;31
2021/08/20 09:39:06;;;;;;;9.60;8.60;;;;;;;;;;2704113;38;20416;-86
2021/08/20 09:41:34;;;;;;;9.97;8.67;;;;;;;;;;2760901;30;20375;-87
2021/08/20 09:49:52;;;;;;;12.03;8.90;;;;;;;;;;2638649;30;20454;-84
2021/08/20 09:52:28;;;;;;;9.93;8.20;;;;;;;;;;2703468;30;20371;-84
2021/08/20 09:54:54;;;;;;;9.87;8.67;;;;;;;;;;2707965;30;20353;-86
2021/08/20 09:57:24;;;;;;;9.03;8.17;;;;;;;;;;2749562;30;21237;-86
2021/08/20 09:59:50;;;;;;;8.10;7.37;;;;;;;;;;2741278;38;20347;-86
2021/08/20 10:02:20;;;;;;;8.20;7.23;;;;;;;;;;2752393;30;21375;-86
2021/08/20 10:12:39;;;;;;;8.50;7.70;;;;;;;;;;2628009;38;21952;31
2021/08/20 10:15:12;;;;;;;8.13;6.73;;;;;;;;;;2674210;30;20455;31
2021/08/20 10:22:53;;;;;;;6.27;5.10;;;;;;;;;;2626013;38;21701;31
2021/08/20 10:25:26;;;;;;;6.37;4.90;;;;;;;;;;2658115;38;20398;31
2021/08/20 10:30:35;;;;;;;6.90;6.10;;;;;;;;;;2657226;38;20359;-84
2021/08/20 10:33:02;;;;;;;5.33;4.83;;;;;;;;;;2720995;38;20351;-85
2021/08/20 10:35:46;;;;;;;5.17;4.77;;;;;;;;;;2724968;30;20420;-85
2021/08/20 10:38:31;;;;;;;5.30;4.80;;;;;;;;;;2710848;30;20407;-84
2021/08/20 10:41:17;;;;;;;8.23;5.50;;;;;;;;;;2693337;30;20348;-85
2021/08/20 10:43:48;;;;;;;4.87;4.50;;;;;;;;;;2686917;38;20348;-85
2021/08/20 10:46:36;;;;;;;4.90;4.40;;;;;;;;;;2736733;38;20457;-85
2021/08/20 10:49:12;;;;;;;7.70;5.37;;;;;;;;;;2692124;30;20351;-85
2021/08/20 10:51:50;;;;;;;6.07;5.50;;;;;;;;;;2705554;30;20354;-85
2021/08/20 10:54:26;;;;;;;5.63;5.10;;;;;;;;;;2718104;30;20339;-85
2021/08/20 10:56:53;;;;;;;5.07;3.87;;;;;;;;;;2721047;30;20418;-85
2021/08/20 11:02:22;;;;;;;7.30;3.60;;;;;;;;;;2638566;30;20911;31
2021/08/20 11:07:43;;;;;;;4.00;3.70;;;;;;;;;;2656438;38;20367;31
2021/08/20 11:10:21;;;;;;;3.40;3.20;;;;;;;;;;2698372;38;20376;31
2021/08/20 11:15:27;;;;;;;3.30;3.10;;;;;;;;;;2697103;30;20411;-86
2021/08/20 11:17:56;;;;;;;4.10;3.80;;;;;;;;;;2713900;38;21133;-85
2021/08/20 11:23:02;;;;;;;3.77;3.47;;;;;;;;;;2683024;30;20445;31
2021/08/20 11:28:38;;;;;;;2.90;2.80;;;;;;;;;;2658333;30;21321;-85
2021/08/20 11:31:10;;;;;;;2.70;2.50;;;;;;;;;;2709247;38;20996;-85
2021/08/20 11:33:40;;;;;;;1.80;1.70;;;;;;;;;;2716997;30;20359;-86
2021/08/20 11:36:06;;;;;;;1.87;1.77;;;;;;;;;;2706833;30;20338;-86
2021/08/20 11:38:38;;;;;;;2.00;1.80;;;;;;;;;;2713921;30;21190;-85
2021/08/20 11:41:19;;;;;;;2.00;1.90;;;;;;;;;;2747315;30;20368;-85
2021/08/20 11:43:49;;;;;;;2.37;2.27;;;;;;;;;;2719173;30;20376;-84
2021/08/20 11:46:15;;;;;;;2.37;2.20;;;;;;;;;;2718126;30;20375;-85
2021/08/20 11:51:23;;;;;;;2.93;2.73;;;;;;;;;;2635578;30;20919;31
2021/08/20 11:54:01;;;;;;;2.87;2.10;;;;;;;;;;2672417;30;20999;31
2021/08/20 12:06:48;;;;;;;3.87;3.50;;;;;;;;;;2706090;38;20371;-86
2021/08/20 12:09:15;;;;;;;4.33;3.30;;;;;;;;;;2708643;38;20363;-85
2021/08/20 12:11:44;;;;;;;2.70;2.50;;;;;;;;;;2714867;38;20479;-85
2021/08/20 12:14:18;;;;;;;2.53;2.33;;;;;;;;;;2692272;30;20355;-85
2021/08/20 12:16:45;;;;;;;3.20;2.40;;;;;;;;;;2704953;30;20881;-85
2021/08/20 12:19:14;;;;;;;2.13;2.03;;;;;;;;;;2679559;38;20352;-86
2021/08/20 12:21:45;;;;;;;2.47;2.20;;;;;;;;;;2690329;30;20358;-85
2021/08/20 12:24:12;;;;;;;2.80;2.50;;;;;;;;;;2728400;30;20354;-85
2021/08/20 12:26:38;;;;;;;4.03;2.50;;;;;;;;;;2712509;38;20402;-85
2021/08/20 12:29:16;;;;;;;3.00;2.90;;;;;;;;;;2690546;30;20347;-85
2021/08/20 12:31:54;;;;;;;4.03;3.80;;;;;;;;;;2706396;38;20362;-85
2021/08/20 12:34:26;;;;;;;3.33;3.13;;;;;;;;;;2720388;30;20482;-85
2021/08/20 12:36:56;;;;;;;3.20;3.00;;;;;;;;;;2712083;38;20346;-86
2021/08/20 12:39:33;;;;;;;3.13;2.93;;;;;;;;;;2720432;30;20379;-86
2021/08/20 12:42:19;;;;;;;3.53;3.23;;;;;;;;;;2720813;38;20428;-86
2021/08/20 12:44:47;;;;;;;3.00;2.80;;;;;;;;;;2754735;30;20436;-86
2021/08/20 12:47:15;;;;;;;2.53;2.00;;;;;;;;;;2718853;30;20355;-86
2021/08/20 12:50:00;;;;;;;3.03;2.83;;;;;;;;;;2731411;30;20378;-85
2021/08/20 12:52:27;;;;;;;2.80;2.40;;;;;;;;;;2699497;38;22525;-86
2021/08/20 12:54:53;;;;;;;5.20;2.40;;;;;;;;;;2753839;30;20435;-86
2021/08/20 12:57:19;;;;;;;3.73;3.20;;;;;;;;;;2712560;38;20332;-85
2021/08/20 12:59:46;;;;;;;2.60;2.43;;;;;;;;;;2704149;30;20359;-86
2021/08/20 13:02:12;;;;;;;2.80;2.37;;;;;;;;;;2713974;38;21206;-86
2021/08/20 13:04:38;;;;;;;2.57;2.43;;;;;;;;;;2694816;30;20402;-85
2021/08/20 13:07:06;;;;;;;2.70;2.50;;;;;;;;;;2695381;38;20335;-86
2021/08/20 13:09:32;;;;;;;3.80;3.50;;;;;;;;;;2703087;30;20351;-85
2021/08/20 13:17:28;;;;;;;4.23;3.83;;;;;;;;;;2649117;30;20493;31
2021/08/20 13:20:04;;;;;;;3.27;3.07;;;;;;;;;;2677456;30;21165;31
2021/08/20 13:25:14;;;;;;;3.40;3.20;;;;;;;;;;2651494;38;20360;31
2021/08/20 13:30:20;;;;;;;4.30;2.90;;;;;;;;;;2651050;38;21216;31
2021/08/20 13:33:06;;;;;;;3.23;3.03;;;;;;;;;;2682404;38;20451;-85
2021/08/20 13:35:33;;;;;;;3.03;2.83;;;;;;;;;;2703234;30;20343;-85
2021/08/20 13:38:08;;;;;;;3.25;2.95;;;;;;;;;;2666567;38;20431;31
2021/08/20 13:40:47;;;;;;;3.27;2.97;;;;;;;;;;2667038;30;20233;-83
2021/08/20 13:43:13;;;;;;;3.90;2.80;;;;;;;;;;2738658;38;21230;-85
2021/08/20 13:45:41;;;;;;;3.53;3.23;;;;;;;;;;2718076;30;20344;-87
2021/08/20 13:48:07;;;;;;;4.47;3.00;;;;;;;;;;2723635;30;20366;-85
2021/08/20 13:50:33;;;;;;;4.50;3.30;;;;;;;;;;2707465;30;20355;-85
2021/08/20 13:53:00;;;;;;;3.47;3.17;;;;;;;;;;2707698;38;21245;-85
2021/08/20 13:55:27;;;;;;;3.20;3.00;;;;;;;;;;2714019;30;20352;-84
2021/08/20 13:57:53;;;;;;;4.70;3.60;;;;;;;;;;2687343;30;21252;-84
2021/08/20 14:00:19;;;;;;;3.63;3.33;;;;;;;;;;2691298;46;20414;-85
2021/08/20 14:02:49;;;;;;;7.13;3.73;;;;;;;;;;2703653;30;20374;-85
2021/08/20 14:05:15;;;;;;;4.30;3.90;;;;;;;;;;2714203;38;20873;-85
2021/08/20 14:07:41;;;;;;;3.53;3.23;;;;;;;;;;2705753;38;20399;-85
2021/08/20 14:10:07;;;;;;;3.50;3.20;;;;;;;;;;2688114;30;21188;-85
2021/08/20 14:12:33;;;;;;;2.67;2.50;;;;;;;;;;2688732;30;20407;-85
2021/08/20 14:14:59;;;;;;;3.43;2.97;;;;;;;;;;2684347;30;20456;-85
2021/08/20 14:17:26;;;;;;;3.33;3.03;;;;;;;;;;2679933;30;20339;-85
2021/08/20 14:19:55;;;;;;;3.37;3.00;;;;;;;;;;2686348;30;20359;-85
2021/08/20 14:22:22;;;;;;;3.30;3.00;;;;;;;;;;2685930;30;20335;-85
2021/08/20 14:24:48;;;;;;;2.80;2.60;;;;;;;;;;2695654;30;20373;-85
2021/08/20 14:27:14;;;;;;;3.27;2.90;;;;;;;;;;2708888;30;20557;-85
2021/08/20 14:29:43;;;;;;;2.87;2.67;;;;;;;;;;2709667;38;20381;-85
2021/08/20 14:32:11;;;;;;;4.07;3.77;;;;;;;;;;2727862;31;20358;-85
2021/08/20 14:34:38;;;;;;;4.17;3.87;;;;;;;;;;2714218;30;20347;-86
2021/08/20 14:37:05;;;;;;;4.20;3.90;;;;;;;;;;2715218;30;20347;-85
2021/08/20 14:39:31;;;;;;;4.20;3.80;;;;;;;;;;2735345;30;20439;-85
2021/08/20 14:42:01;;;;;;;3.30;3.10;;;;;;;;;;2717152;30;20344;-85
2021/08/20 14:44:28;;;;;;;3.80;3.60;;;;;;;;;;2774472;30;20351;-85
2021/08/20 14:49:34;;;;;;;4.00;3.70;;;;;;;;;;2663939;30;20430;31
2021/08/20 14:52:01;;;;;;;5.70;5.40;;;;;;;;;;2657026;38;20365;-85
2021/08/20 15:00:08;;;;;;;4.77;4.57;;;;;;;;;;2640100;30;20415;31
2021/08/20 15:08:01;;;;;;;3.83;3.53;;;;;;;;;;2679961;30;21567;-85
2021/08/20 15:10:27;;;;;;;5.00;3.53;;;;;;;;;;2725835;30;20381;-85
2021/08/20 15:12:55;;;;;;;4.10;3.80;;;;;;;;;;2727721;30;20339;-85
2021/08/20 15:15:22;;;;;;;4.50;4.20;;;;;;;;;;2720837;30;20759;-85
2021/08/20 15:17:49;;;;;;;5.37;4.97;;;;;;;;;;2720027;38;20457;-85
2021/08/20 15:20:15;;;;;;;4.57;4.27;;;;;;;;;;2735025;30;20813;-85
2021/08/20 15:22:41;;;;;;;4.03;3.73;;;;;;;;;;2728301;38;20415;-84
2021/08/20 15:27:51;;;;;;;4.57;4.27;;;;;;;;;;2678415;30;21720;-87
2021/08/20 15:30:18;;;;;;;6.07;4.10;;;;;;;;;;2719002;30;20346;-87
2021/08/20 15:32:44;;;;;;;4.87;4.43;;;;;;;;;;2746947;30;20344;-85
2021/08/20 15:35:11;;;;;;;4.27;3.97;;;;;;;;;;2731662;30;20428;-85
2021/08/20 15:37:38;;;;;;;4.60;4.30;;;;;;;;;;2721517;30;20364;-84
2021/08/20 15:40:04;;;;;;;5.50;4.53;;;;;;;;;;2720302;38;20343;-84
2021/08/20 15:42:30;;;;;;;6.77;4.70;;;;;;;;;;2712919;30;20343;-84
2021/08/20 15:44:58;;;;;;;6.10;3.63;;;;;;;;;;2724885;30;20407;-84
2021/08/20 15:47:24;;;;;;;3.60;3.40;;;;;;;;;;2717067;30;20344;-85
2021/08/20 15:49:50;;;;;;;4.23;3.93;;;;;;;;;;2736565;30;20388;-86
2021/08/20 15:52:17;;;;;;;3.90;3.50;;;;;;;;;;2733460;30;20401;-87
2021/08/20 15:57:25;;;;;;;4.80;4.40;;;;;;;;;;2643877;30;20386;31
2021/08/20 16:00:00;;;;;;;3.85;3.55;;;;;;;;;;2689942;30;20363;31
2021/08/20 16:02:34;;;;;;;4.17;2.90;;;;;;;;;;2707734;38;20471;-85
2021/08/20 16:05:00;;;;;;;4.40;4.00;;;;;;;;;;2709894;38;21107;-85
2021/08/20 16:07:28;;;;;;;4.13;3.60;;;;;;;;;;2732711;38;20370;-84
2021/08/20 16:09:54;;;;;;;5.20;3.67;;;;;;;;;;2738905;30;20331;-85
2021/08/20 16:12:23;;;;;;;3.60;3.30;;;;;;;;;;2746543;30;20392;-85
2021/08/20 16:14:49;;;;;;;3.80;3.47;;;;;;;;;;2702042;30;20352;-84
2021/08/20 16:17:16;;;;;;;4.03;3.73;;;;;;;;;;2736476;30;20344;-85
2021/08/20 16:19:42;;;;;;;4.90;3.70;;;;;;;;;;2713292;30;20394;-85
2021/08/20 16:22:08;;;;;;;4.67;3.67;;;;;;;;;;2743759;30;20348;-86
2021/08/20 16:27:16;;;;;;;4.60;4.00;;;;;;;;;;2660759;30;20379;-85
2021/08/20 16:29:52;;;;;;;4.27;3.97;;;;;;;;;;2643130;30;22841;31
2021/08/20 16:37:45;;;;;;;4.90;3.77;;;;;;;;;;2647606;38;20431;-86
2021/08/20 16:40:11;;;;;;;4.57;3.70;;;;;;;;;;2726059;30;20395;-86
2021/08/20 16:42:37;;;;;;;4.90;4.10;;;;;;;;;;2718336;30;20347;-86
2021/08/20 16:45:04;;;;;;;5.40;3.60;;;;;;;;;;2749584;30;20343;-86
2021/08/20 16:55:18;;;;;;;6.73;4.23;;;;;;;;;;2658382;30;20499;31
2021/08/20 16:57:51;;;;;;;4.05;3.65;;;;;;;;;;2627015;38;20724;31
2021/08/20 17:00:24;;;;;;;3.97;3.57;;;;;;;;;;2632683;30;21413;31
2021/08/20 17:08:04;;;;;;;4.10;3.63;;;;;;;;;;2653473;30;21462;31
2021/08/20 17:19:16;;;;;;;4.43;4.03;;;;;;;;;;2687295;38;20757;31
2021/08/20 17:21:53;;;;;;;9.30;4.00;;;;;;;;;;2660199;30;20371;31
2021/08/20 17:27:08;;;;;;;3.80;3.50;;;;;;;;;;2734592;30;20916;-85
2021/08/20 17:29:35;;;;;;;4.50;4.10;;;;;;;;;;2690614;30;20347;-84
2021/08/20 17:32:02;;;;;;;4.17;3.77;;;;;;;;;;2692853;30;21250;-85
2021/08/20 17:34:28;;;;;;;4.43;3.97;;;;;;;;;;2695338;30;21134;-85
2021/08/20 17:36:54;;;;;;;3.63;3.33;;;;;;;;;;2706950;38;20347;-85
2021/08/20 17:39:20;;;;;;;3.20;2.70;;;;;;;;;;2712720;38;20383;-85
2021/08/20 17:41:47;;;;;;;3.80;3.50;;;;;;;;;;2700670;38;20354;-85
2021/08/20 17:44:13;;;;;;;4.00;3.10;;;;;;;;;;2705997;38;20338;-84
2021/08/20 17:46:39;;;;;;;3.23;3.00;;;;;;;;;;2725023;30;20351;-86
2021/08/20 17:49:05;;;;;;;4.00;3.57;;;;;;;;;;2721791;30;20442;-85
2021/08/20 17:59:27;;;;;;;3.30;3.03;;;;;;;;;;2705265;30;20371;-84
2021/08/20 18:01:54;;;;;;;4.17;3.77;;;;;;;;;;2692650;30;20402;-83
2021/08/20 18:06:55;;;;;;;3.73;3.17;;;;;;;;;;2778264;30;20391;-81
2021/08/20 18:09:21;;;;;;;3.10;2.70;;;;;;;;;;2734477;30;20374;-82
2021/08/20 18:11:48;;;;;;;4.93;2.80;;;;;;;;;;2735336;30;20358;-81
2021/08/20 18:14:14;;;;;;;2.40;2.20;;;;;;;;;;2727246;38;20382;-81
2021/08/20 18:16:40;;;;;;;3.27;2.17;;;;;;;;;;2752751;38;21181;-82
2021/08/20 18:19:06;;;;;;;3.10;2.77;;;;;;;;;;2756292;38;20405;-82
2021/08/20 18:21:32;;;;;;;3.13;2.93;;;;;;;;;;2745551;30;20343;-82
2021/08/20 18:23:59;;;;;;;3.47;3.17;;;;;;;;;;2759216;30;20407;-82
2021/08/20 18:26:25;;;;;;;3.70;2.77;;;;;;;;;;2745423;38;20339;-82
2021/08/20 18:28:51;;;;;;;3.30;2.97;;;;;;;;;;2740428;30;20379;-82
2021/08/20 18:31:17;;;;;;;5.27;3.23;;;;;;;;;;2751081;38;21304;-82
2021/08/20 18:33:43;;;;;;;10.47;9.57;;;;;;;;;;2778026;30;20404;-82
2021/08/20 18:36:10;;;;;;;3.87;3.47;;;;;;;;;;2747237;38;20354;-82
2021/08/20 18:38:37;;;;;;;4.87;3.53;;;;;;;;;;2779400;30;20388;-82
2021/08/20 18:41:04;;;;;;;4.60;4.10;;;;;;;;;;2774173;38;20402;-83
2021/08/20 18:46:04;;;;;;;11.53;4.00;;;;;;;;;;2854447;30;20348;-82
2021/08/20 18:48:30;;;;;;;5.03;3.80;;;;;;;;;;2735228;38;20428;-82
2021/08/20 18:58:45;;;;;;;8.37;6.30;;;;;;;;;;2644428;38;20452;31
2021/08/20 19:01:19;;;;;;;8.90;6.13;;;;;;;;;;2657367;30;20421;31
2021/08/20 19:03:52;;;;;;;8.20;6.40;;;;;;;;;;2655922;38;21485;31
2021/08/20 19:06:27;;;;;;;9.80;6.77;;;;;;;;;;2766499;30;20421;31
2021/08/20 19:11:36;;;;;;;6.63;5.87;;;;;;;;;;2698438;30;20370;31
2021/08/20 19:16:49;;;;;;;6.40;5.03;;;;;;;;;;2643720;30;20409;31
2021/08/20 19:19:15;;;;;;;5.20;4.80;;;;;;;;;;2869194;38;21347;-83
2021/08/20 19:26:55;;;;;;;5.00;4.50;;;;;;;;;;2682747;30;22070;31
2021/08/20 19:29:21;;;;;;;5.40;4.60;;;;;;;;;;2785905;38;20362;-83
2021/08/20 19:34:28;;;;;;;4.03;3.60;;;;;;;;;;2633943;38;20418;31
2021/08/20 19:37:02;;;;;;;4.83;4.43;;;;;;;;;;2653042;30;20408;31
2021/08/20 19:42:11;;;;;;;6.90;4.50;;;;;;;;;;2655169;30;20415;31
2021/08/20 19:44:46;;;;;;;5.27;4.40;;;;;;;;;;2692419;30;21435;31
2021/08/20 19:55:01;;;;;;;4.80;4.30;;;;;;;;;;2646966;38;21589;31
2021/08/20 20:00:08;;;;;;;5.60;5.10;;;;;;;;;;2627796;38;22317;31
2021/08/20 20:02:42;;;;;;;5.50;5.00;;;;;;;;;;2642718;30;21372;31
2021/08/20 20:12:56;;;;;;;6.00;5.40;;;;;;;;;;2640894;38;21979;31
2021/08/20 20:15:30;;;;;;;6.20;5.60;;;;;;;;;;2670573;30;20473;31
2021/08/20 20:20:36;;;;;;;5.90;5.30;;;;;;;;;;2653978;38;20879;31
2021/08/20 20:23:10;;;;;;;7.50;6.10;;;;;;;;;;2666386;30;20704;31
2021/08/20 20:25:44;;;;;;;4.90;4.50;;;;;;;;;;2655349;38;20371;31
2021/08/20 20:30:52;;;;;;;7.27;5.30;;;;;;;;;;2630340;30;21886;31
2021/08/20 20:33:26;;;;;;;12.70;5.57;;;;;;;;;;2640986;38;20416;31
2021/08/20 20:38:35;;;;;;;5.97;5.53;;;;;;;;;;2628849;38;20362;31
2021/08/20 20:41:10;;;;;;;6.63;5.93;;;;;;;;;;2711086;30;20424;31
2021/08/20 20:46:16;;;;;;;6.85;6.05;;;;;;;;;;2642521;30;20637;31
2021/08/20 20:48:51;;;;;;;7.67;6.53;;;;;;;;;;2659297;30;20413;31